X  Schlie├čen METAR Luftfahrt Wetterdaten     EHRD Rotterdam The Hague Airport
Temperatur
6°C Temperatur
4°C Taupunkt
87% Feuchtigkeit



Wind
23 KM/S
14 MPS
6 M/S
12 KTS



220°
SW
Aktuelle Wetterlage

Meistens vereinzelte Wolken Meistens vereinzelte Wolken
Luftdruck 1020.92 (hPa) - 30.15 (inHg)
Sichtweite 6.2 (Meile) - 10 (Km)
Flughafen
Flughafen Code EHRD

Position : Rotterdam The Hague Airport
Entfernung: 16 (Km)

Metar:
EHRD 181025Z AUTO 22012KT 9999 SCT022 06/04 Q1021 NOSIG

Zeit: 18-01-2021 11:25 CET